KESN/ESN METAR and TAF weather

Enter ICAO airport designator
Station Type Date Time Source
KESN METAR 2020/09/27 16:50 UTC NOAA

KESN 271650Z 14003KT 10SM BKN018 26/22 A3000


Station Type Date Time Source
KESN Decoded METAR 2020/09/27 16:50 UTC NOAA

Easton / Newman Field, MD, United States (KESN) 38-48N 076-04W
Sep 27, 2020 - 12:50 PM EDT / 2020.09.27 1650 UTC
Wind: from the SE (140 degrees) at 3 MPH (3 KT):0
Visibility: 10 mile(s):0
Sky conditions: mostly cloudy
Temperature: 78 F (26 C)
Dew Point: 71 F (22 C)
Relative Humidity: 78%
Pressure (altimeter): 30 in. Hg (1015 hPa)
ob: KESN 271650Z 14003KT 10SM BKN018 26/22 A3000
cycle: 17

Station Type Date Time Source
KESN TAF UTC NOAA

Error!

Example: see airport list